createdAt,value
2022-10-15T00:00:50.506Z,99.99
2022-10-15T00:01:50.585Z,99.99
2022-10-15T00:02:50.499Z,99.99
2022-10-15T00:03:50.543Z,99.99
2022-10-15T00:04:50.485Z,99.99
2022-10-15T00:05:50.484Z,99.99
2022-10-15T00:06:50.480Z,99.99
2022-10-15T00:07:50.474Z,99.99
2022-10-15T00:08:50.478Z,99.99
2022-10-15T00:09:50.472Z,99.99
2022-10-15T00:10:50.469Z,99.99
2022-10-15T00:11:50.469Z,99.99
2022-10-15T00:12:50.513Z,99.99
2022-10-15T00:13:50.467Z,99.99
2022-10-15T00:14:50.464Z,99.99
2022-10-15T00:15:50.460Z,99.99
2022-10-15T00:16:50.481Z,99.99
2022-10-15T00:17:50.460Z,99.99
2022-10-15T00:18:50.467Z,99.99
2022-10-15T00:19:50.459Z,99.99
2022-10-15T00:20:50.454Z,99.99
2022-10-15T00:21:50.499Z,99.99
2022-10-15T00:22:50.453Z,99.99
2022-10-15T00:23:50.452Z,99.99
2022-10-15T00:24:50.469Z,99.99
2022-10-15T00:25:50.450Z,99.99
2022-10-15T00:26:50.448Z,99.99
2022-10-15T00:27:50.438Z,99.99
2022-10-15T00:28:50.854Z,99.99
2022-10-15T00:29:50.436Z,99.99
2022-10-15T00:30:50.444Z,99.99
2022-10-15T00:31:50.432Z,99.99
2022-10-15T00:32:50.454Z,99.99
2022-10-15T00:33:50.428Z,99.99
2022-10-15T00:34:50.431Z,99.99
2022-10-15T00:35:50.428Z,99.99
2022-10-15T00:36:50.430Z,99.99
2022-10-15T00:37:50.435Z,99.99
2022-10-15T00:38:50.422Z,99.99
2022-10-15T00:39:50.431Z,99.99
2022-10-15T00:40:50.417Z,99.99
2022-10-15T00:41:50.415Z,99.99
2022-10-15T00:42:50.413Z,99.99
2022-10-15T00:43:50.410Z,99.99
2022-10-15T00:44:50.411Z,99.86
2022-10-15T00:45:50.408Z,99.55
2022-10-15T00:46:50.407Z,98.64
2022-10-15T00:47:50.404Z,98.89
2022-10-15T00:48:50.603Z,98.68
2022-10-15T00:49:50.400Z,99.40
2022-10-15T00:50:50.403Z,99.50
2022-10-15T00:51:50.398Z,99.70
2022-10-15T00:52:50.395Z,99.50
2022-10-15T00:53:50.391Z,99.80
2022-10-15T00:54:50.392Z,99.91
2022-10-15T00:55:50.390Z,99.99
2022-10-15T00:56:50.387Z,99.99
2022-10-15T00:57:50.387Z,99.99
2022-10-15T00:58:50.387Z,99.99
2022-10-15T00:59:50.381Z,99.99
2022-10-15T01:00:50.409Z,99.99
2022-10-15T01:01:50.377Z,99.99
2022-10-15T01:02:50.378Z,99.99
2022-10-15T01:03:50.391Z,99.99
2022-10-15T01:04:50.446Z,99.99
2022-10-15T01:05:50.371Z,99.99
2022-10-15T01:06:50.371Z,99.99
2022-10-15T01:07:50.368Z,99.99
2022-10-15T01:08:50.371Z,99.99
2022-10-15T01:09:50.362Z,99.99
2022-10-15T01:10:50.364Z,99.99
2022-10-15T01:11:50.360Z,99.99
2022-10-15T01:12:50.357Z,99.99
2022-10-15T01:13:50.353Z,99.99
2022-10-15T01:14:50.353Z,99.99
2022-10-15T01:15:50.353Z,99.99
2022-10-15T01:16:50.352Z,99.99
2022-10-15T01:17:50.347Z,99.99
2022-10-15T01:18:50.351Z,99.99
2022-10-15T01:19:50.345Z,99.99
2022-10-15T01:20:50.363Z,99.99
2022-10-15T01:21:50.340Z,99.99
2022-10-15T01:22:50.344Z,99.99
2022-10-15T01:23:50.348Z,99.99
2022-10-15T01:24:50.340Z,99.99
2022-10-15T01:25:50.335Z,99.99
2022-10-15T01:26:50.337Z,99.99
2022-10-15T01:27:50.328Z,99.99
2022-10-15T01:28:50.435Z,99.99
2022-10-15T01:29:50.326Z,99.99
2022-10-15T01:30:50.324Z,99.99
2022-10-15T01:31:50.320Z,99.99
2022-10-15T01:32:50.330Z,99.99
2022-10-15T01:33:50.316Z,99.99
2022-10-15T01:34:50.320Z,99.99
2022-10-15T01:35:50.320Z,99.99
2022-10-15T01:36:50.330Z,99.99
2022-10-15T01:37:50.309Z,99.99
2022-10-15T01:38:50.308Z,99.99
2022-10-15T01:39:50.306Z,99.99
2022-10-15T01:40:50.304Z,99.99
2022-10-15T01:41:50.301Z,99.99
2022-10-15T01:42:50.300Z,99.99
2022-10-15T01:43:50.300Z,99.99
2022-10-15T01:44:50.299Z,99.99
2022-10-15T01:45:50.295Z,99.99
2022-10-15T01:46:50.295Z,99.99
2022-10-15T01:47:50.290Z,99.99
2022-10-15T01:48:50.290Z,99.99
2022-10-15T01:49:50.292Z,99.99
2022-10-15T01:50:50.290Z,99.99
2022-10-15T01:51:50.285Z,99.99
2022-10-15T01:52:50.303Z,99.99
2022-10-15T01:53:50.279Z,99.99
2022-10-15T01:54:50.283Z,99.99
2022-10-15T01:55:50.278Z,99.99
2022-10-15T01:56:50.277Z,99.99
2022-10-15T01:57:50.273Z,99.99
2022-10-15T01:58:50.280Z,99.99
2022-10-15T01:59:50.274Z,99.99
2022-10-15T02:00:50.299Z,99.99
2022-10-15T02:01:50.368Z,99.99
2022-10-15T02:02:50.269Z,99.99
2022-10-15T02:03:50.268Z,99.99
2022-10-15T02:04:50.267Z,99.99
2022-10-15T02:05:50.256Z,99.99
2022-10-15T02:06:50.256Z,99.99
2022-10-15T02:07:50.252Z,99.99
2022-10-15T02:08:50.270Z,99.99
2022-10-15T02:09:50.248Z,99.99
2022-10-15T02:10:50.254Z,99.99
2022-10-15T02:11:50.248Z,99.99
2022-10-15T02:12:50.251Z,99.99
2022-10-15T02:13:50.241Z,99.99
2022-10-15T02:14:50.243Z,99.99
2022-10-15T02:15:50.252Z,99.99
2022-10-15T02:16:50.247Z,99.99
2022-10-15T02:17:50.234Z,99.99
2022-10-15T02:18:50.234Z,99.99
2022-10-15T02:19:50.270Z,99.99
2022-10-15T02:20:50.231Z,99.99
2022-10-15T02:21:50.229Z,99.99
2022-10-15T02:22:50.226Z,99.99
2022-10-15T02:23:50.225Z,99.99
2022-10-15T02:24:53.085Z,99.99
2022-10-15T02:25:50.218Z,99.99
2022-10-15T02:26:50.218Z,99.99
2022-10-15T02:27:50.216Z,99.99
2022-10-15T02:28:50.300Z,99.99
2022-10-15T02:29:50.228Z,99.99
2022-10-15T02:30:50.210Z,99.99
2022-10-15T02:31:50.207Z,99.99
2022-10-15T02:32:50.215Z,99.99
2022-10-15T02:33:50.208Z,99.99
2022-10-15T02:34:50.204Z,99.99
2022-10-15T02:35:50.203Z,99.99
2022-10-15T02:36:50.204Z,99.99
2022-10-15T02:37:50.198Z,99.99
2022-10-15T02:38:50.200Z,99.99
2022-10-15T02:39:50.195Z,99.99
2022-10-15T02:40:50.213Z,99.99
2022-10-15T02:41:50.193Z,99.99
2022-10-15T02:42:50.189Z,99.99
2022-10-15T02:43:50.195Z,99.99
2022-10-15T02:44:50.187Z,99.99
2022-10-15T02:45:50.185Z,99.99
2022-10-15T02:46:50.182Z,99.99
2022-10-15T02:47:50.181Z,99.99
2022-10-15T02:48:50.178Z,99.99
2022-10-15T02:49:50.178Z,99.99
2022-10-15T02:50:50.181Z,99.99
2022-10-15T02:51:50.171Z,99.99
2022-10-15T02:52:50.173Z,99.99
2022-10-15T02:53:50.173Z,99.99
2022-10-15T02:54:50.171Z,99.99
2022-10-15T02:55:50.164Z,99.99
2022-10-15T02:56:50.182Z,99.99
2022-10-15T02:57:50.159Z,99.99
2022-10-15T02:58:50.164Z,99.99
2022-10-15T02:59:50.157Z,99.99
2022-10-15T03:00:50.213Z,99.99
2022-10-15T03:01:50.162Z,99.99
2022-10-15T03:02:50.153Z,99.99
2022-10-15T03:03:50.154Z,99.99
2022-10-15T03:04:50.151Z,99.99
2022-10-15T03:05:50.145Z,99.99
2022-10-15T03:06:50.148Z,99.99
2022-10-15T03:07:50.144Z,99.99
2022-10-15T03:08:50.143Z,99.99
2022-10-15T03:09:50.142Z,99.99
2022-10-15T03:10:50.140Z,99.99
2022-10-15T03:11:50.136Z,99.99
2022-10-15T03:12:50.188Z,99.99
2022-10-15T03:13:50.131Z,99.99
2022-10-15T03:14:50.133Z,99.99
2022-10-15T03:15:50.129Z,99.99
2022-10-15T03:16:50.130Z,99.99
2022-10-15T03:17:50.123Z,99.99
2022-10-15T03:18:50.125Z,99.99
2022-10-15T03:19:50.124Z,99.99
2022-10-15T03:20:50.122Z,99.99
2022-10-15T03:21:50.116Z,99.99
2022-10-15T03:22:50.118Z,99.99
2022-10-15T03:23:50.113Z,99.99
2022-10-15T03:24:50.116Z,99.99
2022-10-15T03:25:50.111Z,99.99
2022-10-15T03:26:50.113Z,99.99
2022-10-15T03:27:50.108Z,99.99
2022-10-15T03:28:50.192Z,99.99
2022-10-15T03:29:50.106Z,99.99
2022-10-15T03:30:50.104Z,99.99
2022-10-15T03:31:50.118Z,99.99
2022-10-15T03:32:50.119Z,99.99
2022-10-15T03:33:50.102Z,99.99
2022-10-15T03:34:50.099Z,99.99
2022-10-15T03:35:50.096Z,99.99
2022-10-15T03:36:50.093Z,99.99
2022-10-15T03:37:50.090Z,99.99
2022-10-15T03:38:50.091Z,99.99
2022-10-15T03:39:50.086Z,99.99
2022-10-15T03:40:50.085Z,99.99
2022-10-15T03:41:50.086Z,99.99
2022-10-15T03:42:50.082Z,99.99
2022-10-15T03:43:50.082Z,99.99
2022-10-15T03:44:50.098Z,99.99
2022-10-15T03:45:50.076Z,99.99
2022-10-15T03:46:50.075Z,99.99
2022-10-15T03:47:50.083Z,99.99
2022-10-15T03:48:50.072Z,99.99
2022-10-15T03:49:50.072Z,99.99
2022-10-15T03:50:50.080Z,99.99
2022-10-15T03:51:50.066Z,99.99
2022-10-15T03:52:50.063Z,99.99
2022-10-15T03:53:50.064Z,99.99
2022-10-15T03:54:50.063Z,99.99
2022-10-15T03:55:50.064Z,99.99
2022-10-15T03:56:50.057Z,99.99
2022-10-15T03:57:50.059Z,99.99
2022-10-15T03:58:50.055Z,99.99
2022-10-15T03:59:50.058Z,99.99
2022-10-15T04:00:50.179Z,99.99
2022-10-15T04:01:50.050Z,99.99
2022-10-15T04:02:50.047Z,99.99
2022-10-15T04:03:50.048Z,99.99
2022-10-15T04:04:50.049Z,99.99
2022-10-15T04:05:53.811Z,99.99
2022-10-15T04:06:50.046Z,99.99
2022-10-15T04:07:50.043Z,99.99
2022-10-15T04:08:50.041Z,99.99
2022-10-15T04:09:50.047Z,99.99
2022-10-15T04:10:50.032Z,99.99
2022-10-15T04:11:50.034Z,99.99
2022-10-15T04:12:50.028Z,99.99
2022-10-15T04:13:50.030Z,99.99
2022-10-15T04:14:50.029Z,99.99
2022-10-15T04:15:50.028Z,99.99
2022-10-15T04:16:50.040Z,99.99
2022-10-15T04:17:50.090Z,99.99
2022-10-15T04:18:50.021Z,99.99
2022-10-15T04:19:50.023Z,99.99
2022-10-15T04:20:50.018Z,99.99
2022-10-15T04:21:50.016Z,99.99
2022-10-15T04:22:50.013Z,99.99
2022-10-15T04:23:50.015Z,99.99
2022-10-15T04:24:50.018Z,99.99
2022-10-15T04:25:50.012Z,99.99
2022-10-15T04:26:50.014Z,99.99
2022-10-15T04:27:50.027Z,99.99
2022-10-15T04:28:50.067Z,99.99
2022-10-15T04:29:50.011Z,99.99
2022-10-15T04:30:49.999Z,99.99
2022-10-15T04:31:50.003Z,99.99
2022-10-15T04:32:50.015Z,99.99
2022-10-15T04:33:50.000Z,99.99
2022-10-15T04:34:49.997Z,99.99
2022-10-15T04:35:49.996Z,99.99
2022-10-15T04:36:49.991Z,99.99
2022-10-15T04:37:49.989Z,99.99
2022-10-15T04:38:49.985Z,99.99
2022-10-15T04:39:49.988Z,99.99
2022-10-15T04:40:49.984Z,99.99
2022-10-15T04:41:49.981Z,99.99
2022-10-15T04:42:49.980Z,99.99
2022-10-15T04:43:49.980Z,99.99
2022-10-15T04:44:49.975Z,99.99
2022-10-15T04:45:49.985Z,99.99
2022-10-15T04:46:49.984Z,99.99
2022-10-15T04:47:49.975Z,99.99
2022-10-15T04:48:49.995Z,99.99
2022-10-15T04:49:49.972Z,99.99
2022-10-15T04:50:49.966Z,99.99
2022-10-15T04:51:49.971Z,99.99
2022-10-15T04:52:49.962Z,99.99
2022-10-15T04:53:49.962Z,99.99
2022-10-15T04:54:49.962Z,99.99
2022-10-15T04:55:49.961Z,99.99
2022-10-15T04:56:49.957Z,99.99
2022-10-15T04:57:49.959Z,99.99
2022-10-15T04:58:49.953Z,99.99
2022-10-15T04:59:53.859Z,99.99
2022-10-15T05:00:49.988Z,99.99
2022-10-15T05:01:49.995Z,99.99
2022-10-15T05:02:49.957Z,99.99
2022-10-15T05:03:49.949Z,99.99
2022-10-15T05:04:49.963Z,99.99
2022-10-15T05:05:49.948Z,99.99
2022-10-15T05:06:49.942Z,99.99
2022-10-15T05:07:49.942Z,99.99
2022-10-15T05:08:49.942Z,99.99
2022-10-15T05:09:49.941Z,99.99
2022-10-15T05:10:49.934Z,99.99
2022-10-15T05:11:49.936Z,99.99
2022-10-15T05:12:51.584Z,99.99
2022-10-15T05:13:49.930Z,99.99
2022-10-15T05:14:49.931Z,99.99
2022-10-15T05:15:49.936Z,99.99
2022-10-15T05:16:49.925Z,99.99
2022-10-15T05:17:49.927Z,99.99
2022-10-15T05:18:49.925Z,99.99
2022-10-15T05:19:49.928Z,99.99
2022-10-15T05:20:49.936Z,99.99
2022-10-15T05:21:49.935Z,99.99
2022-10-15T05:22:49.916Z,99.99
2022-10-15T05:23:49.915Z,99.99
2022-10-15T05:24:49.913Z,99.99
2022-10-15T05:25:53.142Z,99.99
2022-10-15T05:26:49.909Z,99.99
2022-10-15T05:27:49.906Z,99.99
2022-10-15T05:28:49.967Z,99.99
2022-10-15T05:29:49.904Z,99.99
2022-10-15T05:30:49.901Z,99.99
2022-10-15T05:31:49.903Z,99.99
2022-10-15T05:32:49.902Z,99.99
2022-10-15T05:33:49.898Z,99.99
2022-10-15T05:34:49.900Z,99.99
2022-10-15T05:35:49.896Z,99.99
2022-10-15T05:36:49.913Z,99.99
2022-10-15T05:37:49.897Z,99.99
2022-10-15T05:38:49.887Z,99.99
2022-10-15T05:39:49.888Z,99.99
2022-10-15T05:40:49.887Z,99.99
2022-10-15T05:41:49.884Z,99.99
2022-10-15T05:42:49.976Z,99.99
2022-10-15T05:43:49.897Z,99.99
2022-10-15T05:44:49.882Z,99.99
2022-10-15T05:45:49.877Z,99.99
2022-10-15T05:46:49.875Z,99.99
2022-10-15T05:47:49.876Z,99.99
2022-10-15T05:48:49.877Z,99.99
2022-10-15T05:49:49.870Z,99.99
2022-10-15T05:50:49.868Z,99.99
2022-10-15T05:51:49.912Z,99.99
2022-10-15T05:52:49.880Z,99.99
2022-10-15T05:53:49.864Z,99.99
2022-10-15T05:54:49.863Z,99.99
2022-10-15T05:55:49.862Z,99.99
2022-10-15T05:56:49.858Z,99.99
2022-10-15T05:57:49.860Z,99.99
2022-10-15T05:58:49.859Z,99.99
2022-10-15T05:59:49.855Z,99.99
2022-10-15T06:00:49.853Z,99.99
2022-10-15T06:01:49.893Z,99.99
2022-10-15T06:02:50.020Z,99.99
2022-10-15T06:03:49.850Z,99.99
2022-10-15T06:04:49.848Z,99.99
2022-10-15T06:05:49.849Z,99.99
2022-10-15T06:06:49.852Z,99.99
2022-10-15T06:07:49.844Z,99.99
2022-10-15T06:08:49.859Z,99.99
2022-10-15T06:09:49.843Z,99.99
2022-10-15T06:10:49.842Z,99.99
2022-10-15T06:11:49.835Z,99.99
2022-10-15T06:12:49.835Z,99.99
2022-10-15T06:13:49.835Z,99.99
2022-10-15T06:14:49.832Z,99.99
2022-10-15T06:15:49.831Z,99.99
2022-10-15T06:16:49.830Z,99.99
2022-10-15T06:17:49.828Z,99.99
2022-10-15T06:18:49.826Z,99.99
2022-10-15T06:19:49.824Z,99.99
2022-10-15T06:20:49.826Z,99.99
2022-10-15T06:21:49.823Z,99.99
2022-10-15T06:22:49.828Z,99.99
2022-10-15T06:23:49.819Z,99.99
2022-10-15T06:24:49.855Z,99.99
2022-10-15T06:25:49.812Z,99.99
2022-10-15T06:26:49.812Z,99.99
2022-10-15T06:27:49.818Z,99.99
2022-10-15T06:28:49.876Z,99.99
2022-10-15T06:29:49.818Z,99.99
2022-10-15T06:30:49.810Z,99.99
2022-10-15T06:31:49.806Z,99.99
2022-10-15T06:32:49.806Z,99.99
2022-10-15T06:33:50.254Z,99.99
2022-10-15T06:34:49.799Z,99.99
2022-10-15T06:35:49.802Z,99.99
2022-10-15T06:36:49.796Z,99.99
2022-10-15T06:37:49.797Z,99.99
2022-10-15T06:38:49.794Z,99.99
2022-10-15T06:39:49.791Z,99.99
2022-10-15T06:40:49.809Z,99.99
2022-10-15T06:41:49.793Z,99.99
2022-10-15T06:42:49.789Z,99.99
2022-10-15T06:43:49.928Z,99.99
2022-10-15T06:44:49.784Z,99.99
2022-10-15T06:45:49.783Z,99.99
2022-10-15T06:46:49.782Z,99.99
2022-10-15T06:47:49.781Z,99.99
2022-10-15T06:48:49.779Z,99.99
2022-10-15T06:49:49.779Z,99.99
2022-10-15T06:50:49.773Z,99.99
2022-10-15T06:51:49.777Z,99.99
2022-10-15T06:52:49.875Z,99.99
2022-10-15T06:53:49.772Z,99.99
2022-10-15T06:54:49.771Z,99.99
2022-10-15T06:55:49.772Z,99.99
2022-10-15T06:56:49.841Z,99.99
2022-10-15T06:57:49.766Z,99.99
2022-10-15T06:58:49.763Z,99.99
2022-10-15T06:59:49.761Z,99.99
2022-10-15T07:00:49.758Z,99.99
2022-10-15T07:01:49.759Z,99.99
2022-10-15T07:02:49.757Z,99.99
2022-10-15T07:03:49.757Z,99.99
2022-10-15T07:04:49.752Z,99.99
2022-10-15T07:05:49.750Z,99.99
2022-10-15T07:06:49.757Z,99.99
2022-10-15T07:07:49.751Z,99.99
2022-10-15T07:08:49.747Z,99.99
2022-10-15T07:09:49.748Z,99.99
2022-10-15T07:10:49.743Z,99.99
2022-10-15T07:11:49.746Z,99.99
2022-10-15T07:12:49.761Z,99.99
2022-10-15T07:13:49.743Z,99.99
2022-10-15T07:14:49.737Z,99.99
2022-10-15T07:15:49.736Z,99.99
2022-10-15T07:16:49.735Z,99.99
2022-10-15T07:17:49.733Z,99.99
2022-10-15T07:18:49.737Z,99.99
2022-10-15T07:19:49.733Z,99.99
2022-10-15T07:20:49.772Z,99.99
2022-10-15T07:21:49.729Z,99.99
2022-10-15T07:22:49.730Z,99.99
2022-10-15T07:23:49.730Z,99.99
2022-10-15T07:24:49.721Z,99.99
2022-10-15T07:25:49.722Z,99.99
2022-10-15T07:26:49.721Z,99.99
2022-10-15T07:27:49.719Z,99.99
2022-10-15T07:28:49.800Z,99.99
2022-10-15T07:29:49.742Z,99.99
2022-10-15T07:30:49.723Z,99.99
2022-10-15T07:31:49.722Z,99.99
2022-10-15T07:32:50.302Z,99.99
2022-10-15T07:33:49.712Z,99.99
2022-10-15T07:34:49.706Z,99.99
2022-10-15T07:35:49.710Z,99.99
2022-10-15T07:36:49.703Z,99.99
2022-10-15T07:37:49.704Z,99.99
2022-10-15T07:38:49.702Z,99.99
2022-10-15T07:39:49.705Z,99.99
2022-10-15T07:40:49.701Z,99.99
2022-10-15T07:41:49.696Z,99.99
2022-10-15T07:42:49.694Z,99.99
2022-10-15T07:43:49.694Z,99.99
2022-10-15T07:44:49.714Z,99.99
2022-10-15T07:45:49.696Z,99.99
2022-10-15T07:46:49.689Z,99.99
2022-10-15T07:47:49.687Z,99.99
2022-10-15T07:48:49.691Z,99.99
2022-10-15T07:49:49.688Z,99.99
2022-10-15T07:50:49.685Z,99.99
2022-10-15T07:51:49.680Z,99.99
2022-10-15T07:52:49.683Z,99.99
2022-10-15T07:53:49.681Z,99.99
2022-10-15T07:54:49.677Z,99.99
2022-10-15T07:55:49.675Z,99.99
2022-10-15T07:56:49.684Z,99.99
2022-10-15T07:57:49.684Z,99.99
2022-10-15T07:58:49.671Z,99.99
2022-10-15T07:59:49.673Z,99.99
2022-10-15T08:00:49.692Z,99.99
2022-10-15T08:01:50.708Z,99.99
2022-10-15T08:02:49.672Z,99.99
2022-10-15T08:03:49.666Z,99.99
2022-10-15T08:04:49.709Z,99.99
2022-10-15T08:05:49.661Z,99.99
2022-10-15T08:06:49.667Z,99.99
2022-10-15T08:07:49.657Z,99.99
2022-10-15T08:08:49.662Z,99.99
2022-10-15T08:09:49.659Z,99.99
2022-10-15T08:10:49.665Z,99.99
2022-10-15T08:11:49.655Z,99.99
2022-10-15T08:12:49.665Z,99.99
2022-10-15T08:13:49.650Z,99.99
2022-10-15T08:14:49.650Z,99.99
2022-10-15T08:15:49.645Z,99.99
2022-10-15T08:16:49.664Z,99.99
2022-10-15T08:17:49.645Z,99.99
2022-10-15T08:18:49.701Z,99.99
2022-10-15T08:19:49.641Z,99.99
2022-10-15T08:20:49.643Z,99.99
2022-10-15T08:21:49.637Z,99.99
2022-10-15T08:22:49.643Z,99.99
2022-10-15T08:23:49.636Z,99.99
2022-10-15T08:24:49.638Z,99.99
2022-10-15T08:25:49.632Z,99.99
2022-10-15T08:26:49.636Z,99.99
2022-10-15T08:27:49.628Z,99.99
2022-10-15T08:28:49.697Z,99.99
2022-10-15T08:29:49.628Z,99.99
2022-10-15T08:30:49.635Z,99.99
2022-10-15T08:31:49.626Z,99.99
2022-10-15T08:32:49.640Z,99.99
2022-10-15T08:33:49.628Z,99.99
2022-10-15T08:34:49.624Z,99.99
2022-10-15T08:35:49.618Z,99.99
2022-10-15T08:36:49.622Z,99.99
2022-10-15T08:37:49.622Z,99.99
2022-10-15T08:38:49.866Z,99.99
2022-10-15T08:39:49.615Z,99.99
2022-10-15T08:40:49.619Z,99.99
2022-10-15T08:41:49.614Z,99.99
2022-10-15T08:42:49.614Z,99.99
2022-10-15T08:43:49.612Z,99.99
2022-10-15T08:44:49.612Z,99.99
2022-10-15T08:45:49.612Z,99.99
2022-10-15T08:46:49.606Z,99.99
2022-10-15T08:47:49.604Z,99.99
2022-10-15T08:48:49.619Z,99.99
2022-10-15T08:49:49.602Z,99.99
2022-10-15T08:50:51.777Z,99.99
2022-10-15T08:51:49.598Z,99.99
2022-10-15T08:52:49.598Z,99.99
2022-10-15T08:53:49.634Z,99.99
2022-10-15T08:54:49.597Z,99.99
2022-10-15T08:55:49.598Z,99.99
2022-10-15T08:56:49.596Z,99.99
2022-10-15T08:57:49.589Z,99.99
2022-10-15T08:58:49.590Z,99.99
2022-10-15T08:59:49.587Z,99.99
2022-10-15T09:00:49.603Z,99.99
2022-10-15T09:01:49.582Z,99.99
2022-10-15T09:02:49.627Z,99.99
2022-10-15T09:03:49.582Z,99.99
2022-10-15T09:04:49.600Z,99.99
2022-10-15T09:05:49.579Z,99.99
2022-10-15T09:06:49.579Z,99.99
2022-10-15T09:07:52.142Z,99.99
2022-10-15T09:08:49.585Z,99.99
2022-10-15T09:09:49.580Z,99.99
2022-10-15T09:10:49.581Z,99.99
2022-10-15T09:11:49.573Z,99.99
2022-10-15T09:12:49.569Z,99.99
2022-10-15T09:13:49.567Z,99.99
2022-10-15T09:14:49.568Z,99.99
2022-10-15T09:15:49.568Z,99.99
2022-10-15T09:16:49.564Z,99.99
2022-10-15T09:17:49.561Z,99.99
2022-10-15T09:18:49.566Z,99.99
2022-10-15T09:19:49.560Z,99.99
2022-10-15T09:20:49.578Z,99.99
2022-10-15T09:21:49.559Z,99.99
2022-10-15T09:23:49.582Z,99.99
2022-10-15T09:24:49.565Z,99.99
2022-10-15T09:25:49.559Z,99.99
2022-10-15T09:26:49.558Z,99.99
2022-10-15T09:27:49.553Z,99.99
2022-10-15T09:28:49.657Z,99.99
2022-10-15T09:29:49.548Z,99.99
2022-10-15T09:30:49.555Z,99.99
2022-10-15T09:31:49.576Z,99.99
2022-10-15T09:32:52.040Z,99.99
2022-10-15T09:33:49.540Z,99.99
2022-10-15T09:34:49.540Z,99.99
2022-10-15T09:35:49.539Z,99.99
2022-10-15T09:36:49.557Z,99.99
2022-10-15T09:37:49.541Z,99.99
2022-10-15T09:38:49.941Z,99.99
2022-10-15T09:39:49.534Z,99.99
2022-10-15T09:40:49.538Z,99.99
2022-10-15T09:41:49.530Z,99.99
2022-10-15T09:42:49.532Z,99.99
2022-10-15T09:43:49.529Z,99.99
2022-10-15T09:44:49.531Z,99.99
2022-10-15T09:45:49.526Z,99.99
2022-10-15T09:46:49.528Z,99.99
2022-10-15T09:47:49.523Z,99.99
2022-10-15T09:48:49.525Z,99.99
2022-10-15T09:49:49.521Z,99.99
2022-10-15T09:50:49.520Z,99.99
2022-10-15T09:51:49.517Z,99.99
2022-10-15T09:52:49.540Z,99.99
2022-10-15T09:53:49.514Z,99.99
2022-10-15T09:54:49.517Z,99.99
2022-10-15T09:55:49.519Z,99.99
2022-10-15T09:56:49.515Z,99.99
2022-10-15T09:57:49.513Z,99.99
2022-10-15T09:58:49.511Z,99.99
2022-10-15T09:59:49.511Z,99.99
2022-10-15T10:00:49.511Z,99.99
2022-10-15T10:01:49.517Z,99.99
2022-10-15T10:02:49.506Z,99.99
2022-10-15T10:03:49.504Z,99.99
2022-10-15T10:04:49.506Z,99.99
2022-10-15T10:05:50.326Z,99.99
2022-10-15T10:06:49.505Z,99.99
2022-10-15T10:07:49.497Z,99.99
2022-10-15T10:08:49.773Z,99.99
2022-10-15T10:09:49.498Z,99.99
2022-10-15T10:10:49.497Z,99.99
2022-10-15T10:11:49.494Z,99.99
2022-10-15T10:12:49.501Z,99.99
2022-10-15T10:13:49.493Z,99.99
2022-10-15T10:14:49.492Z,99.99
2022-10-15T10:15:49.490Z,99.99
2022-10-15T10:16:49.493Z,99.99
2022-10-15T10:18:49.488Z,99.99
2022-10-15T10:19:49.486Z,99.99
2022-10-15T10:20:49.485Z,99.99
2022-10-15T10:21:49.484Z,99.99
2022-10-15T10:22:51.462Z,99.99
2022-10-15T10:23:49.480Z,99.99
2022-10-15T10:24:49.498Z,99.99
2022-10-15T10:25:49.477Z,99.99
2022-10-15T10:26:49.481Z,99.99
2022-10-15T10:27:49.476Z,99.99
2022-10-15T10:28:49.549Z,99.99
2022-10-15T10:29:49.526Z,99.99
2022-10-15T10:30:49.474Z,99.99
2022-10-15T10:31:49.481Z,99.99
2022-10-15T10:32:49.479Z,99.99
2022-10-15T10:33:49.470Z,99.99
2022-10-15T10:34:52.727Z,99.99
2022-10-15T10:35:49.476Z,99.99
2022-10-15T10:36:49.470Z,99.99
2022-10-15T10:37:49.473Z,99.99
2022-10-15T10:38:49.665Z,99.99
2022-10-15T10:39:49.464Z,99.99
2022-10-15T10:40:49.487Z,99.99
2022-10-15T10:41:49.460Z,99.99
2022-10-15T10:42:49.458Z,99.99
2022-10-15T10:43:49.457Z,99.99
2022-10-15T10:44:49.459Z,99.99
2022-10-15T10:45:50.825Z,99.99
2022-10-15T10:46:49.453Z,99.99
2022-10-15T10:47:49.452Z,99.99
2022-10-15T10:48:49.452Z,99.99
2022-10-15T10:49:49.449Z,99.99
2022-10-15T10:50:49.451Z,99.99
2022-10-15T10:51:49.449Z,99.99
2022-10-15T10:52:49.457Z,99.99
2022-10-15T10:53:49.445Z,99.99
2022-10-15T10:54:49.447Z,99.99
2022-10-15T10:55:49.448Z,99.99
2022-10-15T10:56:49.487Z,99.99
2022-10-15T10:57:49.448Z,99.99
2022-10-15T10:58:49.443Z,99.99
2022-10-15T10:59:49.441Z,99.99
2022-10-15T11:00:49.503Z,99.99
2022-10-15T11:01:49.437Z,99.99
2022-10-15T11:02:49.442Z,99.99
2022-10-15T11:03:49.437Z,99.99
2022-10-15T11:04:49.439Z,99.99
2022-10-15T11:05:49.433Z,99.99
2022-10-15T11:06:49.432Z,99.99
2022-10-15T11:07:49.434Z,99.99
2022-10-15T11:08:49.435Z,99.99
2022-10-15T11:09:52.347Z,99.99
2022-10-15T11:10:49.430Z,99.99
2022-10-15T11:11:49.426Z,99.99
2022-10-15T11:12:49.447Z,99.99
2022-10-15T11:13:49.429Z,99.99
2022-10-15T11:14:49.433Z,99.99
2022-10-15T11:15:49.424Z,99.99
2022-10-15T11:16:49.432Z,99.99
2022-10-15T11:17:49.422Z,99.99
2022-10-15T11:18:49.424Z,99.99
2022-10-15T11:20:57.893Z,99.99
2022-10-15T11:21:49.417Z,99.99
2022-10-15T11:22:49.416Z,99.99
2022-10-15T11:23:49.416Z,99.99
2022-10-15T11:25:02.626Z,99.99
2022-10-15T11:25:49.414Z,99.99
2022-10-15T11:27:06.578Z,99.99
2022-10-15T11:27:49.412Z,99.99
2022-10-15T11:28:49.507Z,99.99
2022-10-15T11:29:49.409Z,99.99
2022-10-15T11:30:49.412Z,99.99
2022-10-15T11:32:02.132Z,99.99
2022-10-15T11:33:06.073Z,99.99
2022-10-15T11:33:49.404Z,99.99
2022-10-15T11:34:49.404Z,99.99
2022-10-15T11:35:53.370Z,99.99
2022-10-15T11:36:49.404Z,99.99
2022-10-15T11:37:49.400Z,99.99
2022-10-15T11:38:49.400Z,99.99
2022-10-15T11:39:49.399Z,99.99
2022-10-15T11:40:49.401Z,99.99
2022-10-15T11:41:49.399Z,99.99
2022-10-15T11:42:49.396Z,99.99
2022-10-15T11:43:49.399Z,99.99
2022-10-15T11:44:49.412Z,99.99
2022-10-15T11:45:49.393Z,99.99
2022-10-15T11:46:49.403Z,99.99
2022-10-15T11:47:49.393Z,99.99
2022-10-15T11:48:49.394Z,99.99
2022-10-15T11:49:49.389Z,99.99
2022-10-15T11:50:49.395Z,99.99
2022-10-15T11:51:49.390Z,99.99
2022-10-15T11:52:49.446Z,99.99
2022-10-15T11:53:49.385Z,99.99
2022-10-15T11:54:49.389Z,99.99
2022-10-15T11:55:49.384Z,99.99
2022-10-15T11:56:49.393Z,99.99
2022-10-15T11:57:49.388Z,99.99
2022-10-15T11:58:49.454Z,99.99
2022-10-15T11:59:49.425Z,99.99
2022-10-15T12:00:49.414Z,99.99
2022-10-15T12:01:49.383Z,99.99
2022-10-15T12:02:49.379Z,99.99
2022-10-15T12:03:49.400Z,99.99
2022-10-15T12:04:49.377Z,99.99
2022-10-15T12:05:49.380Z,99.99
2022-10-15T12:06:49.377Z,99.99
2022-10-15T12:07:49.378Z,99.99
2022-10-15T12:08:49.372Z,99.99
2022-10-15T12:09:49.376Z,99.99
2022-10-15T12:10:49.375Z,99.99
2022-10-15T12:11:49.374Z,99.99
2022-10-15T12:12:49.369Z,99.99
2022-10-15T12:13:49.376Z,99.99
2022-10-15T12:14:49.366Z,99.99
2022-10-15T12:15:49.370Z,99.99
2022-10-15T12:16:49.383Z,99.99
2022-10-15T12:17:49.364Z,99.99
2022-10-15T12:18:49.364Z,99.99
2022-10-15T12:19:49.372Z,99.99
2022-10-15T12:20:49.365Z,99.99
2022-10-15T12:21:49.362Z,99.99
2022-10-15T12:22:49.365Z,99.99
2022-10-15T12:23:49.384Z,99.99
2022-10-15T12:24:49.364Z,99.99
2022-10-15T12:25:49.376Z,99.99
2022-10-15T12:26:49.362Z,99.99
2022-10-15T12:27:49.373Z,99.99
2022-10-15T12:28:49.460Z,99.99
2022-10-15T12:29:49.368Z,99.99
2022-10-15T12:30:49.357Z,99.99
2022-10-15T12:31:49.379Z,99.99
2022-10-15T12:32:49.374Z,99.99
2022-10-15T12:33:49.355Z,99.99
2022-10-15T12:34:49.355Z,99.99
2022-10-15T12:35:49.351Z,99.99
2022-10-15T12:36:49.351Z,99.99
2022-10-15T12:37:49.352Z,99.99
2022-10-15T12:38:49.349Z,99.99
2022-10-15T12:39:53.158Z,99.99
2022-10-15T12:40:49.349Z,99.99
2022-10-15T12:41:49.354Z,99.99
2022-10-15T12:42:49.347Z,99.99
2022-10-15T12:43:49.346Z,99.99
2022-10-15T12:44:49.348Z,99.99
2022-10-15T12:45:49.389Z,99.99
2022-10-15T12:46:49.347Z,99.99
2022-10-15T12:47:49.343Z,99.99
2022-10-15T12:48:49.361Z,99.99
2022-10-15T12:49:49.346Z,99.99
2022-10-15T12:50:49.338Z,99.99
2022-10-15T12:51:52.665Z,99.99
2022-10-15T12:52:49.339Z,99.99
2022-10-15T12:53:49.339Z,99.99
2022-10-15T12:54:49.337Z,99.99
2022-10-15T12:55:49.337Z,99.99